createdAt,value
2019-01-11T00:00:33.331Z,1018.62
2019-01-11T00:01:33.328Z,1018.58
2019-01-11T00:02:33.300Z,1018.60
2019-01-11T00:03:33.289Z,1018.56
2019-01-11T00:04:33.279Z,1018.60
2019-01-11T00:05:33.277Z,1018.57
2019-01-11T00:06:33.280Z,1018.55
2019-01-11T00:07:33.248Z,1018.53
2019-01-11T00:08:33.239Z,1018.54
2019-01-11T00:09:33.458Z,1018.53
2019-01-11T00:10:33.308Z,1018.53
2019-01-11T00:11:33.228Z,1018.59
2019-01-11T00:12:33.635Z,1018.54
2019-01-11T00:13:33.454Z,1018.52
2019-01-11T00:14:33.471Z,1018.51
2019-01-11T00:15:33.163Z,1018.52
2019-01-11T00:16:33.150Z,1018.57
2019-01-11T00:17:33.149Z,1018.51
2019-01-11T00:18:33.133Z,1018.51
2019-01-11T00:19:33.123Z,1018.51
2019-01-11T00:20:33.105Z,1018.52
2019-01-11T00:21:33.098Z,1018.50
2019-01-11T00:22:33.105Z,1018.51
2019-01-11T00:23:33.082Z,1018.48
2019-01-11T00:24:33.125Z,1018.49
2019-01-11T00:25:33.066Z,1018.48
2019-01-11T00:26:33.043Z,1018.47
2019-01-11T00:27:33.034Z,1018.40
2019-01-11T00:28:33.052Z,1018.42
2019-01-11T00:29:33.020Z,1018.44
2019-01-11T00:30:33.001Z,1018.43
2019-01-11T00:31:32.995Z,1018.44
2019-01-11T00:32:32.982Z,1018.41
2019-01-11T00:33:32.969Z,1018.39
2019-01-11T00:34:32.960Z,1018.36
2019-01-11T00:35:32.954Z,1018.34
2019-01-11T00:36:32.942Z,1018.35
2019-01-11T00:37:32.935Z,1018.42
2019-01-11T00:38:32.920Z,1018.44
2019-01-11T00:39:32.902Z,1018.35
2019-01-11T00:40:32.901Z,1018.35
2019-01-11T00:41:32.887Z,1018.32
2019-01-11T00:42:32.870Z,1018.31
2019-01-11T00:43:32.868Z,1018.26
2019-01-11T00:44:32.870Z,1018.29
2019-01-11T00:45:32.838Z,1018.30
2019-01-11T00:46:32.831Z,1018.27
2019-01-11T00:47:32.827Z,1018.28
2019-01-11T00:48:32.811Z,1018.18
2019-01-11T00:49:32.800Z,1018.19
2019-01-11T00:50:32.835Z,1018.13
2019-01-11T00:51:32.775Z,1018.17
2019-01-11T00:52:32.771Z,1018.21
2019-01-11T00:53:32.758Z,1018.19
2019-01-11T00:54:32.740Z,1018.19
2019-01-11T00:55:32.735Z,1018.17
2019-01-11T00:56:32.723Z,1018.19
2019-01-11T00:57:32.715Z,1018.20
2019-01-11T00:58:32.704Z,1018.24
2019-01-11T00:59:32.700Z,1018.24
2019-01-11T01:00:32.676Z,1018.22
2019-01-11T01:01:32.671Z,1018.26
2019-01-11T01:02:32.659Z,1018.23
2019-01-11T01:03:32.644Z,1018.25
2019-01-11T01:04:32.641Z,1018.21
2019-01-11T01:05:32.632Z,1018.23
2019-01-11T01:06:32.652Z,1018.15
2019-01-11T01:07:32.607Z,1018.12
2019-01-11T01:08:32.594Z,1018.13
2019-01-11T01:09:32.582Z,1018.09
2019-01-11T01:10:32.575Z,1018.05
2019-01-11T01:11:32.598Z,1018.06
2019-01-11T01:12:32.550Z,1018.08
2019-01-11T01:13:32.537Z,1018.07
2019-01-11T01:14:32.526Z,1018.05
2019-01-11T01:15:32.516Z,1018.05
2019-01-11T01:16:32.513Z,1018.07
2019-01-11T01:17:32.490Z,1018.08
2019-01-11T01:18:32.480Z,1018.07
2019-01-11T01:19:32.467Z,1018.09
2019-01-11T01:20:32.457Z,1018.08
2019-01-11T01:21:32.449Z,1018.13
2019-01-11T01:22:32.442Z,1018.06
2019-01-11T01:23:32.426Z,1018.11
2019-01-11T01:24:32.416Z,1018.06
2019-01-11T01:25:32.402Z,1018.02
2019-01-11T01:26:32.393Z,1018.02
2019-01-11T01:27:32.384Z,1018.00
2019-01-11T01:28:32.373Z,1018.00
2019-01-11T01:29:32.361Z,1018.00
2019-01-11T01:30:32.352Z,1017.99
2019-01-11T01:31:32.339Z,1017.99
2019-01-11T01:32:32.330Z,1017.95
2019-01-11T01:33:32.320Z,1017.94
2019-01-11T01:34:32.308Z,1017.94
2019-01-11T01:35:32.297Z,1017.94
2019-01-11T01:36:32.285Z,1017.96
2019-01-11T01:37:32.690Z,1017.89
2019-01-11T01:38:32.266Z,1017.88
2019-01-11T01:39:32.271Z,1017.91
2019-01-11T01:40:32.247Z,1017.92
2019-01-11T01:41:32.236Z,1017.90
2019-01-11T01:42:32.225Z,1017.88
2019-01-11T01:43:32.210Z,1017.91
2019-01-11T01:44:32.207Z,1017.87
2019-01-11T01:45:32.205Z,1017.86
2019-01-11T01:46:32.203Z,1017.86
2019-01-11T01:47:32.168Z,1017.85
2019-01-11T01:48:32.159Z,1017.85
2019-01-11T01:49:32.148Z,1017.84
2019-01-11T01:50:32.139Z,1017.89
2019-01-11T01:51:32.141Z,1017.85
2019-01-11T01:52:32.119Z,1017.81
2019-01-11T01:53:32.106Z,1017.84
2019-01-11T01:54:32.098Z,1017.77
2019-01-11T01:55:32.088Z,1017.79
2019-01-11T01:56:32.077Z,1017.80
2019-01-11T01:57:32.070Z,1017.85
2019-01-11T01:58:32.056Z,1017.78
2019-01-11T01:59:32.041Z,1017.84
2019-01-11T02:00:32.031Z,1017.85
2019-01-11T02:01:32.026Z,1017.81
2019-01-11T02:02:32.013Z,1017.81
2019-01-11T02:03:32.011Z,1017.83
2019-01-11T02:04:31.995Z,1017.83
2019-01-11T02:05:31.976Z,1017.87
2019-01-11T02:06:31.965Z,1017.90
2019-01-11T02:07:31.956Z,1017.86
2019-01-11T02:08:31.945Z,1017.82
2019-01-11T02:09:31.942Z,1017.79
2019-01-11T02:10:31.931Z,1017.80
2019-01-11T02:11:31.913Z,1017.76
2019-01-11T02:12:31.901Z,1017.81
2019-01-11T02:13:31.891Z,1017.78
2019-01-11T02:14:31.888Z,1017.76
2019-01-11T02:15:31.870Z,1017.71
2019-01-11T02:16:31.859Z,1017.73
2019-01-11T02:17:31.851Z,1017.65
2019-01-11T02:18:31.837Z,1017.69
2019-01-11T02:19:33.009Z,1017.73
2019-01-11T02:20:31.821Z,1017.66
2019-01-11T02:21:31.827Z,1017.63
2019-01-11T02:22:31.796Z,1017.64
2019-01-11T02:23:31.783Z,1017.63
2019-01-11T02:24:31.777Z,1017.64
2019-01-11T02:25:31.762Z,1017.60
2019-01-11T02:26:31.767Z,1017.59
2019-01-11T02:27:31.744Z,1017.56
2019-01-11T02:28:31.730Z,1017.51
2019-01-11T02:29:31.757Z,1017.54
2019-01-11T02:30:31.707Z,1017.51
2019-01-11T02:31:31.697Z,1017.55
2019-01-11T02:32:31.691Z,1017.53
2019-01-11T02:33:31.678Z,1017.55
2019-01-11T02:34:31.666Z,1017.52
2019-01-11T02:35:31.656Z,1017.47
2019-01-11T02:36:31.645Z,1017.54
2019-01-11T02:37:31.635Z,1017.50
2019-01-11T02:38:32.321Z,1017.56
2019-01-11T02:39:31.616Z,1017.54
2019-01-11T02:40:31.600Z,1017.50
2019-01-11T02:41:31.590Z,1017.50
2019-01-11T02:42:31.603Z,1017.46
2019-01-11T02:43:31.574Z,1017.46
2019-01-11T02:44:32.648Z,1017.50
2019-01-11T02:45:31.551Z,1017.42
2019-01-11T02:46:31.538Z,1017.42
2019-01-11T02:47:31.525Z,1017.43
2019-01-11T02:48:31.526Z,1017.45
2019-01-11T02:49:31.507Z,1017.37
2019-01-11T02:50:31.499Z,1017.37
2019-01-11T02:51:31.486Z,1017.36
2019-01-11T02:52:31.476Z,1017.35
2019-01-11T02:53:31.463Z,1017.37
2019-01-11T02:54:31.460Z,1017.28
2019-01-11T02:55:31.446Z,1017.27
2019-01-11T02:56:31.441Z,1017.27
2019-01-11T02:57:31.419Z,1017.23
2019-01-11T02:58:31.416Z,1017.20
2019-01-11T02:59:31.398Z,1017.14
2019-01-11T03:00:31.401Z,1017.12
2019-01-11T03:01:31.380Z,1017.05
2019-01-11T03:02:31.367Z,1017.06
2019-01-11T03:03:31.370Z,1017.05
2019-01-11T03:04:31.342Z,1017.00
2019-01-11T03:05:31.332Z,1016.98
2019-01-11T03:06:31.322Z,1017.00
2019-01-11T03:07:31.310Z,1016.99
2019-01-11T03:08:31.301Z,1016.99
2019-01-11T03:09:31.295Z,1016.91
2019-01-11T03:10:31.279Z,1016.87
2019-01-11T03:11:31.280Z,1016.86
2019-01-11T03:12:31.258Z,1016.86
2019-01-11T03:13:31.248Z,1016.86
2019-01-11T03:14:31.240Z,1016.82
2019-01-11T03:15:31.227Z,1016.82
2019-01-11T03:16:31.214Z,1016.76
2019-01-11T03:17:31.204Z,1016.74
2019-01-11T03:18:31.193Z,1016.70
2019-01-11T03:19:31.184Z,1016.74
2019-01-11T03:20:31.174Z,1016.67
2019-01-11T03:21:31.164Z,1016.69
2019-01-11T03:22:31.151Z,1016.68
2019-01-11T03:23:32.293Z,1016.66
2019-01-11T03:24:31.137Z,1016.66
2019-01-11T03:25:31.122Z,1016.65
2019-01-11T03:26:31.113Z,1016.57
2019-01-11T03:27:31.098Z,1016.58
2019-01-11T03:28:31.087Z,1016.61
2019-01-11T03:29:31.083Z,1016.53
2019-01-11T03:30:31.077Z,1016.50
2019-01-11T03:31:31.061Z,1016.51
2019-01-11T03:32:31.067Z,1016.54
2019-01-11T03:33:31.030Z,1016.54
2019-01-11T03:34:31.020Z,1016.48
2019-01-11T03:35:31.018Z,1016.50
2019-01-11T03:36:31.010Z,1016.53
2019-01-11T03:37:30.998Z,1016.52
2019-01-11T03:38:30.979Z,1016.49
2019-01-11T03:39:30.974Z,1016.48
2019-01-11T03:40:30.958Z,1016.47
2019-01-11T03:41:30.951Z,1016.47
2019-01-11T03:42:30.940Z,1016.44
2019-01-11T03:43:30.923Z,1016.45
2019-01-11T03:44:30.917Z,1016.39
2019-01-11T03:45:30.903Z,1016.40
2019-01-11T03:46:30.891Z,1016.41
2019-01-11T03:47:30.886Z,1016.42
2019-01-11T03:48:30.875Z,1016.40
2019-01-11T03:49:30.862Z,1016.35
2019-01-11T03:50:30.858Z,1016.36
2019-01-11T03:51:30.840Z,1016.37
2019-01-11T03:52:30.827Z,1016.35
2019-01-11T03:53:30.818Z,1016.29
2019-01-11T03:54:30.807Z,1016.35
2019-01-11T03:55:30.794Z,1016.31
2019-01-11T03:56:30.786Z,1016.33
2019-01-11T03:57:30.775Z,1016.32
2019-01-11T03:58:30.764Z,1016.29
2019-01-11T03:59:30.757Z,1016.30
2019-01-11T04:00:30.743Z,1016.28
2019-01-11T04:01:30.732Z,1016.31
2019-01-11T04:02:30.722Z,1016.34
2019-01-11T04:03:30.711Z,1016.29
2019-01-11T04:04:30.717Z,1016.27
2019-01-11T04:05:30.689Z,1016.26
2019-01-11T04:06:30.693Z,1016.23
2019-01-11T04:07:30.684Z,1016.23
2019-01-11T04:08:30.656Z,1016.20
2019-01-11T04:09:30.645Z,1016.19
2019-01-11T04:10:30.637Z,1016.17
2019-01-11T04:11:30.623Z,1016.16
2019-01-11T04:12:30.617Z,1016.12
2019-01-11T04:13:30.873Z,1016.11
2019-01-11T04:14:30.593Z,1016.13
2019-01-11T04:15:30.582Z,1016.10
2019-01-11T04:16:30.583Z,1016.06
2019-01-11T04:17:30.562Z,1016.04
2019-01-11T04:18:30.566Z,1016.11
2019-01-11T04:19:30.546Z,1016.07
2019-01-11T04:20:30.526Z,1016.03
2019-01-11T04:21:30.517Z,1016.00
2019-01-11T04:22:30.518Z,1016.01
2019-01-11T04:23:30.501Z,1015.97
2019-01-11T04:24:30.495Z,1015.96
2019-01-11T04:25:30.481Z,1015.94
2019-01-11T04:26:30.461Z,1015.92
2019-01-11T04:27:30.453Z,1015.92
2019-01-11T04:28:30.445Z,1015.90
2019-01-11T04:29:30.432Z,1015.86
2019-01-11T04:30:30.421Z,1015.84
2019-01-11T04:31:30.413Z,1015.85
2019-01-11T04:32:30.398Z,1015.84
2019-01-11T04:33:30.389Z,1015.83
2019-01-11T04:34:30.493Z,1015.81
2019-01-11T04:35:30.367Z,1015.75
2019-01-11T04:36:30.361Z,1015.72
2019-01-11T04:37:30.343Z,1015.71
2019-01-11T04:38:30.342Z,1015.74
2019-01-11T04:39:30.324Z,1015.71
2019-01-11T04:40:34.119Z,1015.74
2019-01-11T04:41:30.306Z,1015.69
2019-01-11T04:42:30.293Z,1015.65
2019-01-11T04:43:30.281Z,1015.67
2019-01-11T04:44:30.271Z,1015.67
2019-01-11T04:45:30.260Z,1015.63
2019-01-11T04:46:30.248Z,1015.61
2019-01-11T04:47:30.244Z,1015.66
2019-01-11T04:48:30.228Z,1015.61
2019-01-11T04:49:30.219Z,1015.63
2019-01-11T04:50:30.205Z,1015.59
2019-01-11T04:51:30.195Z,1015.59
2019-01-11T04:52:30.186Z,1015.59
2019-01-11T04:53:30.175Z,1015.60
2019-01-11T04:54:30.163Z,1015.59
2019-01-11T04:55:30.151Z,1015.56
2019-01-11T04:56:30.142Z,1015.56
2019-01-11T04:57:30.138Z,1015.54
2019-01-11T04:58:30.123Z,1015.55
2019-01-11T04:59:30.118Z,1015.51
2019-01-11T05:00:30.116Z,1015.51
2019-01-11T05:01:30.088Z,1015.49
2019-01-11T05:02:30.076Z,1015.49
2019-01-11T05:03:30.075Z,1015.43
2019-01-11T05:04:30.055Z,1015.45
2019-01-11T05:05:30.047Z,1015.41
2019-01-11T05:06:30.042Z,1015.40
2019-01-11T05:07:30.077Z,1015.39
2019-01-11T05:08:30.012Z,1015.35
2019-01-11T05:09:30.009Z,1015.36
2019-01-11T05:10:29.995Z,1015.32
2019-01-11T05:11:29.980Z,1015.35
2019-01-11T05:12:29.971Z,1015.29
2019-01-11T05:13:29.958Z,1015.32
2019-01-11T05:14:29.948Z,1015.23
2019-01-11T05:15:29.939Z,1015.25
2019-01-11T05:16:29.931Z,1015.22
2019-01-11T05:17:29.935Z,1015.22
2019-01-11T05:18:29.904Z,1015.20
2019-01-11T05:19:29.893Z,1015.19
2019-01-11T05:20:29.884Z,1015.18
2019-01-11T05:21:29.872Z,1015.14
2019-01-11T05:22:29.866Z,1015.14
2019-01-11T05:23:29.854Z,1015.16
2019-01-11T05:24:29.839Z,1015.13
2019-01-11T05:25:29.831Z,1015.12
2019-01-11T05:26:29.818Z,1015.10
2019-01-11T05:27:29.809Z,1015.11
2019-01-11T05:28:29.799Z,1015.09
2019-01-11T05:29:29.789Z,1015.07
2019-01-11T05:30:29.775Z,1015.08
2019-01-11T05:31:29.766Z,1015.03
2019-01-11T05:32:29.754Z,1015.01
2019-01-11T05:33:29.746Z,1015.05
2019-01-11T05:34:29.735Z,1015.00
2019-01-11T05:35:29.726Z,1015.00
2019-01-11T05:36:29.713Z,1014.91
2019-01-11T05:37:29.704Z,1014.93
2019-01-11T05:38:29.709Z,1014.93
2019-01-11T05:39:29.682Z,1014.96
2019-01-11T05:40:29.674Z,1014.94
2019-01-11T05:41:29.666Z,1014.95
2019-01-11T05:42:29.646Z,1014.90
2019-01-11T05:43:29.635Z,1014.88
2019-01-11T05:44:29.630Z,1014.90
2019-01-11T05:45:29.621Z,1014.87
2019-01-11T05:46:29.614Z,1014.89
2019-01-11T05:47:29.602Z,1014.86
2019-01-11T05:48:29.581Z,1014.84
2019-01-11T05:49:29.572Z,1014.82
2019-01-11T05:50:29.565Z,1014.80
2019-01-11T05:51:29.553Z,1014.81
2019-01-11T05:52:29.547Z,1014.83
2019-01-11T05:53:29.532Z,1014.80
2019-01-11T05:54:29.517Z,1014.79
2019-01-11T05:55:29.513Z,1014.78
2019-01-11T05:56:29.497Z,1014.78
2019-01-11T05:57:29.487Z,1014.82
2019-01-11T05:58:29.488Z,1014.80
2019-01-11T05:59:29.467Z,1014.76
2019-01-11T06:00:29.453Z,1014.75
2019-01-11T06:01:29.445Z,1014.76
2019-01-11T06:02:29.434Z,1014.76
2019-01-11T06:03:29.446Z,1014.76
2019-01-11T06:04:29.412Z,1014.74
2019-01-11T06:05:29.401Z,1014.74
2019-01-11T06:06:29.391Z,1014.71
2019-01-11T06:07:29.385Z,1014.66
2019-01-11T06:08:29.373Z,1014.66
2019-01-11T06:09:29.364Z,1014.62
2019-01-11T06:10:29.348Z,1014.58
2019-01-11T06:11:29.337Z,1014.59
2019-01-11T06:12:29.326Z,1014.50
2019-01-11T06:13:29.313Z,1014.58
2019-01-11T06:14:29.302Z,1014.56
2019-01-11T06:15:29.298Z,1014.54
2019-01-11T06:16:29.284Z,1014.48
2019-01-11T06:17:29.271Z,1014.47
2019-01-11T06:18:29.261Z,1014.48
2019-01-11T06:19:29.250Z,1014.44
2019-01-11T06:20:30.376Z,1014.44
2019-01-11T06:21:29.233Z,1014.47
2019-01-11T06:22:29.220Z,1014.44
2019-01-11T06:23:29.205Z,1014.39
2019-01-11T06:24:29.195Z,1014.38
2019-01-11T06:25:29.188Z,1014.38
2019-01-11T06:26:29.174Z,1014.40
2019-01-11T06:27:29.168Z,1014.34
2019-01-11T06:28:29.181Z,1014.38
2019-01-11T06:29:29.143Z,1014.38
2019-01-11T06:30:29.130Z,1014.33
2019-01-11T06:31:29.123Z,1014.34
2019-01-11T06:32:29.112Z,1014.33
2019-01-11T06:33:29.116Z,1014.34
2019-01-11T06:34:29.088Z,1014.29
2019-01-11T06:35:29.077Z,1014.27
2019-01-11T06:36:29.068Z,1014.30
2019-01-11T06:37:29.065Z,1014.29
2019-01-11T06:38:29.048Z,1014.29
2019-01-11T06:39:29.042Z,1014.28
2019-01-11T06:40:29.023Z,1014.31
2019-01-11T06:41:29.014Z,1014.29
2019-01-11T06:42:29.007Z,1014.26
2019-01-11T06:43:28.992Z,1014.29
2019-01-11T06:44:28.989Z,1014.22
2019-01-11T06:45:28.970Z,1014.24
2019-01-11T06:46:28.959Z,1014.25
2019-01-11T06:47:28.947Z,1014.20
2019-01-11T06:48:28.939Z,1014.21
2019-01-11T06:49:28.927Z,1014.20
2019-01-11T06:50:28.917Z,1014.18
2019-01-11T06:51:28.905Z,1014.18
2019-01-11T06:52:28.897Z,1014.13
2019-01-11T06:53:28.885Z,1014.15
2019-01-11T06:54:28.874Z,1014.09
2019-01-11T06:55:28.864Z,1014.08
2019-01-11T06:56:28.860Z,1014.05
2019-01-11T06:57:28.842Z,1014.05
2019-01-11T06:58:28.836Z,1014.09
2019-01-11T06:59:28.821Z,1014.07
2019-01-11T07:00:28.809Z,1013.99
2019-01-11T07:01:28.799Z,1014.02
2019-01-11T07:02:28.792Z,1014.00
2019-01-11T07:03:28.781Z,1014.02
2019-01-11T07:04:28.766Z,1014.02
2019-01-11T07:05:28.757Z,1014.01
2019-01-11T07:06:28.747Z,1014.04
2019-01-11T07:07:28.736Z,1013.98
2019-01-11T07:08:28.727Z,1014.01
2019-01-11T07:09:28.716Z,1013.98
2019-01-11T07:10:28.708Z,1013.99
2019-01-11T07:11:28.697Z,1014.00
2019-01-11T07:12:28.694Z,1013.99
2019-01-11T07:13:28.672Z,1014.00
2019-01-11T07:14:28.663Z,1014.03
2019-01-11T07:15:28.655Z,1014.13
2019-01-11T07:16:28.637Z,1014.05
2019-01-11T07:17:28.628Z,1014.02
2019-01-11T07:18:28.617Z,1014.07
2019-01-11T07:19:28.608Z,1014.08
2019-01-11T07:20:28.602Z,1014.08
2019-01-11T07:21:28.585Z,1014.03
2019-01-11T07:22:28.573Z,1014.05
2019-01-11T07:23:28.563Z,1013.99
2019-01-11T07:24:28.550Z,1014.00
2019-01-11T07:25:28.542Z,1014.05
2019-01-11T07:26:28.541Z,1014.02
2019-01-11T07:27:28.530Z,1013.98
2019-01-11T07:28:28.523Z,1014.04
2019-01-11T07:29:28.496Z,1014.04
2019-01-11T07:30:28.487Z,1014.06
2019-01-11T07:31:28.481Z,1014.05
2019-01-11T07:32:28.491Z,1014.03
2019-01-11T07:33:28.460Z,1014.10
2019-01-11T07:34:28.445Z,1014.06
2019-01-11T07:35:28.433Z,1014.12
2019-01-11T07:36:28.427Z,1014.13
2019-01-11T07:37:28.412Z,1014.05
2019-01-11T07:38:28.413Z,1014.07
2019-01-11T07:39:28.391Z,1014.07
2019-01-11T07:40:28.383Z,1014.06
2019-01-11T07:41:28.370Z,1014.04
2019-01-11T07:42:28.357Z,1014.04
2019-01-11T07:43:28.347Z,1013.96
2019-01-11T07:44:28.339Z,1013.94
2019-01-11T07:45:28.330Z,1013.91
2019-01-11T07:46:28.317Z,1013.90
2019-01-11T07:47:28.308Z,1013.96
2019-01-11T07:48:28.317Z,1013.88
2019-01-11T07:49:28.285Z,1013.90
2019-01-11T07:50:28.273Z,1013.89
2019-01-11T07:51:28.263Z,1013.96
2019-01-11T07:52:28.261Z,1013.99
2019-01-11T07:53:28.240Z,1013.99
2019-01-11T07:54:28.233Z,1013.95
2019-01-11T07:55:28.219Z,1013.89
2019-01-11T07:56:28.213Z,1013.88
2019-01-11T07:57:28.200Z,1013.91
2019-01-11T07:58:28.342Z,1013.89
2019-01-11T07:59:28.178Z,1013.87
2019-01-11T08:00:28.172Z,1013.90
2019-01-11T08:01:28.156Z,1013.90
2019-01-11T08:02:28.151Z,1013.87
2019-01-11T08:03:28.136Z,1013.87
2019-01-11T08:04:28.125Z,1013.85
2019-01-11T08:05:28.113Z,1013.83
2019-01-11T08:06:28.101Z,1013.83
2019-01-11T08:07:28.094Z,1013.74
2019-01-11T08:08:28.099Z,1013.80
2019-01-11T08:09:28.069Z,1013.73
2019-01-11T08:10:28.060Z,1013.68
2019-01-11T08:11:28.047Z,1013.64
2019-01-11T08:12:28.043Z,1013.67
2019-01-11T08:13:28.028Z,1013.68
2019-01-11T08:14:28.014Z,1013.63
2019-01-11T08:15:28.009Z,1013.62
2019-01-11T08:16:27.996Z,1013.65
2019-01-11T08:17:27.983Z,1013.62
2019-01-11T08:18:27.973Z,1013.60
2019-01-11T08:19:27.963Z,1013.61
2019-01-11T08:20:27.950Z,1013.59
2019-01-11T08:21:27.940Z,1013.58
2019-01-11T08:22:27.962Z,1013.58
2019-01-11T08:23:27.920Z,1013.53
2019-01-11T08:24:27.910Z,1013.54
2019-01-11T08:25:27.899Z,1013.50
2019-01-11T08:26:27.888Z,1013.54
2019-01-11T08:27:27.876Z,1013.48
2019-01-11T08:28:27.868Z,1013.46
2019-01-11T08:29:27.862Z,1013.48
2019-01-11T08:30:27.845Z,1013.47
2019-01-11T08:31:34.578Z,1013.48
2019-01-11T08:32:28.823Z,1013.51
2019-01-11T08:33:27.814Z,1013.50
2019-01-11T08:34:27.810Z,1013.47
2019-01-11T08:35:29.110Z,1013.51
2019-01-11T08:36:27.788Z,1013.45
2019-01-11T08:37:27.772Z,1013.46
2019-01-11T08:38:27.758Z,1013.43
2019-01-11T08:39:32.436Z,1013.44
2019-01-11T08:40:27.748Z,1013.38
2019-01-11T08:41:27.728Z,1013.36
2019-01-11T08:42:27.716Z,1013.39
2019-01-11T08:43:27.712Z,1013.34
2019-01-11T08:44:27.700Z,1013.32
2019-01-11T08:45:27.684Z,1013.34
2019-01-11T08:46:27.674Z,1013.29
2019-01-11T08:47:27.672Z,1013.25
2019-01-11T08:48:27.653Z,1013.24
2019-01-11T08:49:27.646Z,1013.25
2019-01-11T08:50:27.630Z,1013.23
2019-01-11T08:51:27.622Z,1013.25
2019-01-11T08:52:27.614Z,1013.30
2019-01-11T08:53:27.598Z,1013.21
2019-01-11T08:54:27.591Z,1013.26
2019-01-11T08:55:27.585Z,1013.17
2019-01-11T08:56:27.570Z,1013.19
2019-01-11T08:57:27.554Z,1013.26
2019-01-11T08:58:27.566Z,1013.20
2019-01-11T08:59:27.541Z,1013.20
2019-01-11T09:00:27.530Z,1013.16
2019-01-11T09:01:27.513Z,1013.15
2019-01-11T09:02:27.502Z,1013.21
2019-01-11T09:03:27.493Z,1013.21
2019-01-11T09:04:27.911Z,1013.23
2019-01-11T09:05:27.476Z,1013.16
2019-01-11T09:06:27.458Z,1013.15
2019-01-11T09:07:27.449Z,1013.11
2019-01-11T09:08:27.437Z,1013.16
2019-01-11T09:09:27.430Z,1013.12
2019-01-11T09:10:27.416Z,1013.09
2019-01-11T09:11:27.417Z,1013.09
2019-01-11T09:12:27.397Z,1013.10
2019-01-11T09:13:27.384Z,1013.08
2019-01-11T09:14:27.376Z,1013.08
2019-01-11T09:15:27.364Z,1013.09
2019-01-11T09:16:27.351Z,1013.10
2019-01-11T09:17:27.383Z,1013.09
2019-01-11T09:18:27.331Z,1013.13
2019-01-11T09:19:27.321Z,1013.06
2019-01-11T09:20:27.312Z,1013.09
2019-01-11T09:21:27.297Z,1013.03
2019-01-11T09:22:27.287Z,1013.05
2019-01-11T09:23:27.275Z,1013.06
2019-01-11T09:24:27.269Z,1013.06
2019-01-11T09:25:27.254Z,1013.05
2019-01-11T09:26:27.243Z,1013.01
2019-01-11T09:27:27.232Z,1012.97
2019-01-11T09:28:27.223Z,1012.98
2019-01-11T09:29:27.213Z,1012.92
2019-01-11T09:30:27.205Z,1012.91
2019-01-11T09:31:27.191Z,1012.93
2019-01-11T09:32:27.180Z,1012.90
2019-01-11T09:33:27.170Z,1012.87
2019-01-11T09:34:27.269Z,1012.90
2019-01-11T09:35:27.153Z,1012.90
2019-01-11T09:36:27.144Z,1012.92
2019-01-11T09:37:27.126Z,1012.90
2019-01-11T09:38:27.115Z,1012.88
2019-01-11T09:39:27.105Z,1012.90
2019-01-11T09:40:27.095Z,1012.86
2019-01-11T09:41:27.096Z,1012.87
2019-01-11T09:42:27.081Z,1012.85
2019-01-11T09:43:27.065Z,1012.83
2019-01-11T09:44:27.053Z,1012.84
2019-01-11T09:45:27.041Z,1012.79
2019-01-11T09:46:27.028Z,1012.77
2019-01-11T09:47:27.019Z,1012.77
2019-01-11T09:48:27.006Z,1012.74
2019-01-11T09:49:26.998Z,1012.70
2019-01-11T09:50:26.986Z,1012.71
2019-01-11T09:51:26.976Z,1012.71
2019-01-11T09:52:26.963Z,1012.63
2019-01-11T09:53:26.953Z,1012.58
2019-01-11T09:54:26.941Z,1012.62
2019-01-11T09:55:26.933Z,1012.63
2019-01-11T09:56:26.923Z,1012.66
2019-01-11T09:57:26.918Z,1012.64
2019-01-11T09:58:26.936Z,1012.69
2019-01-11T09:59:26.891Z,1012.63
2019-01-11T10:00:26.983Z,1012.64
2019-01-11T10:01:26.870Z,1012.60
2019-01-11T10:02:26.882Z,1012.56
2019-01-11T10:03:26.851Z,1012.53
2019-01-11T10:04:26.834Z,1012.53
2019-01-11T10:05:26.831Z,1012.53
2019-01-11T10:06:26.813Z,1012.48
2019-01-11T10:07:26.805Z,1012.55
2019-01-11T10:08:26.791Z,1012.47
2019-01-11T10:09:26.787Z,1012.48
2019-01-11T10:10:26.777Z,1012.43
2019-01-11T10:11:26.764Z,1012.41
2019-01-11T10:12:26.751Z,1012.43
2019-01-11T10:13:26.742Z,1012.41
2019-01-11T10:14:26.731Z,1012.47
2019-01-11T10:15:26.765Z,1012.44
2019-01-11T10:16:26.708Z,1012.43
2019-01-11T10:17:26.700Z,1012.44
2019-01-11T10:18:26.684Z,1012.40
2019-01-11T10:19:26.674Z,1012.35
2019-01-11T10:20:26.670Z,1012.32
2019-01-11T10:21:26.661Z,1012.26
2019-01-11T10:22:26.650Z,1012.23
2019-01-11T10:23:26.645Z,1012.22
2019-01-11T10:24:26.621Z,1012.19
2019-01-11T10:25:26.612Z,1012.17
2019-01-11T10:26:26.611Z,1012.15
2019-01-11T10:27:26.590Z,1012.12
2019-01-11T10:28:26.582Z,1012.08
2019-01-11T10:29:26.569Z,1012.05
2019-01-11T10:30:26.558Z,1012.01
2019-01-11T10:31:26.547Z,1012.03
2019-01-11T10:32:26.536Z,1012.05
2019-01-11T10:33:26.525Z,1012.00
2019-01-11T10:34:26.512Z,1011.98
2019-01-11T10:35:26.503Z,1011.94
2019-01-11T10:36:26.491Z,1011.93
2019-01-11T10:37:26.480Z,1011.93
2019-01-11T10:38:26.470Z,1011.89
2019-01-11T10:39:26.460Z,1011.85
2019-01-11T10:40:26.451Z,1011.81
2019-01-11T10:41:26.450Z,1011.79
2019-01-11T10:42:26.426Z,1011.76
2019-01-11T10:43:26.472Z,1011.72
2019-01-11T10:44:26.407Z,1011.69
2019-01-11T10:45:26.413Z,1011.70
2019-01-11T10:46:26.385Z,1011.66
2019-01-11T10:47:26.375Z,1011.68
2019-01-11T10:48:26.363Z,1011.71
2019-01-11T10:49:26.352Z,1011.71
2019-01-11T10:50:26.341Z,1011.68
2019-01-11T10:51:28.253Z,1011.67
2019-01-11T10:52:26.323Z,1011.60
2019-01-11T10:53:26.312Z,1011.65
2019-01-11T10:54:26.304Z,1011.61
2019-01-11T10:55:26.287Z,1011.58
2019-01-11T10:56:26.278Z,1011.59
2019-01-11T10:57:26.283Z,1011.53
2019-01-11T10:58:26.260Z,1011.53
2019-01-11T10:59:26.247Z,1011.54
2019-01-11T11:00:26.240Z,1011.56
2019-01-11T11:01:26.225Z,1011.52
2019-01-11T11:02:26.213Z,1011.51
2019-01-11T11:03:26.208Z,1011.47
2019-01-11T11:04:26.194Z,1011.45
2019-01-11T11:05:26.182Z,1011.51
2019-01-11T11:06:26.169Z,1011.45
2019-01-11T11:07:26.160Z,1011.46
2019-01-11T11:08:26.149Z,1011.39
2019-01-11T11:09:26.166Z,1011.38
2019-01-11T11:10:26.134Z,1011.38
2019-01-11T11:11:26.115Z,1011.37
2019-01-11T11:12:26.108Z,1011.34
2019-01-11T11:13:26.096Z,1011.30
2019-01-11T11:14:26.096Z,1011.27
2019-01-11T11:15:26.095Z,1011.29
2019-01-11T11:16:26.061Z,1011.29
2019-01-11T11:17:26.053Z,1011.26
2019-01-11T11:18:26.043Z,1011.32
2019-01-11T11:19:26.030Z,1011.27
2019-01-11T11:20:26.022Z,1011.27
2019-01-11T11:21:26.942Z,1011.27
2019-01-11T11:22:26.242Z,1011.25
2019-01-11T11:23:26.547Z,1011.24
2019-01-11T11:24:25.979Z,1011.22
2019-01-11T11:25:25.972Z,1011.27
2019-01-11T11:26:25.955Z,1011.24
2019-01-11T11:27:25.943Z,1011.17
2019-01-11T11:28:25.934Z,1011.14
2019-01-11T11:29:25.924Z,1011.14
2019-01-11T11:30:25.911Z,1011.10
2019-01-11T11:31:25.944Z,1011.08
2019-01-11T11:32:25.891Z,1011.03
2019-01-11T11:33:25.881Z,1011.05
2019-01-11T11:34:25.869Z,1011.04
2019-01-11T11:35:25.859Z,1010.98
2019-01-11T11:36:25.857Z,1011.00
2019-01-11T11:37:25.841Z,1010.98
2019-01-11T11:38:25.831Z,1010.93
2019-01-11T11:39:25.819Z,1010.88
2019-01-11T11:40:25.804Z,1010.89
2019-01-11T11:41:26.136Z,1010.87
2019-01-11T11:42:25.784Z,1010.78
2019-01-11T11:43:25.775Z,1010.79
2019-01-11T11:44:25.764Z,1010.77
2019-01-11T11:45:25.753Z,1010.82
2019-01-11T11:46:25.816Z,1010.74
2019-01-11T11:47:25.729Z,1010.69
2019-01-11T11:48:25.725Z,1010.71
2019-01-11T11:49:25.714Z,1010.71
2019-01-11T11:50:25.704Z,1010.70
2019-01-11T11:51:25.719Z,1010.66
2019-01-11T11:52:25.690Z,1010.67
2019-01-11T11:53:25.667Z,1010.61
2019-01-11T11:54:25.658Z,1010.59
2019-01-11T11:55:25.645Z,1010.55
2019-01-11T11:56:25.638Z,1010.48
2019-01-11T11:57:25.622Z,1010.46
2019-01-11T11:58:25.611Z,1010.46
2019-01-11T11:59:25.604Z,1010.44
2019-01-11T12:00:25.589Z,1010.44
2019-01-11T12:01:25.579Z,1010.39
2019-01-11T12:02:25.570Z,1010.36
2019-01-11T12:03:25.559Z,1010.36
2019-01-11T12:04:25.548Z,1010.37
2019-01-11T12:05:25.540Z,1010.28